createdAt,value
2023-06-29T00:01:55.617Z,19.92
2023-06-29T00:04:26.802Z,19.86
2023-06-29T00:06:55.141Z,19.86
2023-06-29T00:09:23.097Z,19.84
2023-06-29T00:11:49.819Z,19.81
2023-06-29T00:14:16.527Z,19.76
2023-06-29T00:16:43.192Z,19.78
2023-06-29T00:19:09.735Z,19.78
2023-06-29T00:21:36.221Z,19.78
2023-06-29T00:24:03.766Z,19.76
2023-06-29T00:26:30.408Z,19.73
2023-06-29T00:28:57.698Z,19.71
2023-06-29T00:31:25.616Z,19.71
2023-06-29T00:33:52.347Z,19.73
2023-06-29T00:36:19.503Z,19.71
2023-06-29T00:38:46.050Z,19.72
2023-06-29T00:41:12.580Z,19.69
2023-06-29T00:43:39.133Z,19.68
2023-06-29T00:46:09.172Z,19.72
2023-06-29T00:48:39.076Z,19.73
2023-06-29T00:51:06.217Z,19.76
2023-06-29T00:53:32.930Z,19.73
2023-06-29T00:56:03.683Z,19.73
2023-06-29T00:58:30.767Z,19.73
2023-06-29T01:00:58.850Z,19.73
2023-06-29T01:03:25.631Z,19.76
2023-06-29T01:05:57.492Z,19.72
2023-06-29T01:08:30.342Z,19.72
2023-06-29T01:10:59.563Z,19.75
2023-06-29T01:13:28.385Z,19.78
2023-06-29T01:15:55.180Z,19.78
2023-06-29T01:18:25.204Z,19.76
2023-06-29T01:20:52.972Z,19.76
2023-06-29T01:23:30.191Z,19.73
2023-06-29T01:25:57.578Z,19.68
2023-06-29T01:28:24.072Z,19.68
2023-06-29T01:30:50.709Z,19.72
2023-06-29T01:33:19.993Z,19.73
2023-06-29T01:35:47.228Z,19.76
2023-06-29T01:38:23.485Z,19.75
2023-06-29T01:40:50.661Z,19.76
2023-06-29T01:43:19.159Z,19.77
2023-06-29T01:45:47.648Z,19.74
2023-06-29T01:48:15.095Z,19.69
2023-06-29T01:50:41.784Z,19.67
2023-06-29T01:53:08.407Z,19.64
2023-06-29T01:55:37.740Z,19.66
2023-06-29T01:58:04.453Z,19.65
2023-06-29T02:00:30.965Z,19.64
2023-06-29T02:02:57.669Z,19.66
2023-06-29T02:05:24.340Z,19.66
2023-06-29T02:07:51.177Z,19.63
2023-06-29T02:10:17.695Z,19.65
2023-06-29T02:12:44.262Z,19.69
2023-06-29T02:15:11.191Z,19.66
2023-06-29T02:17:37.972Z,19.65
2023-06-29T02:20:04.947Z,19.63
2023-06-29T02:22:31.439Z,19.65
2023-06-29T02:24:57.915Z,19.65
2023-06-29T02:27:24.556Z,19.66
2023-06-29T02:29:51.002Z,19.67
2023-06-29T02:32:17.454Z,19.68
2023-06-29T02:34:43.878Z,19.68
2023-06-29T02:37:10.470Z,19.70
2023-06-29T02:39:36.939Z,19.70
2023-06-29T02:42:03.521Z,19.65
2023-06-29T02:44:29.919Z,19.64
2023-06-29T02:46:56.557Z,19.65
2023-06-29T02:49:22.980Z,19.67
2023-06-29T02:51:49.461Z,19.68
2023-06-29T02:54:15.985Z,19.69
2023-06-29T02:56:42.585Z,19.64
2023-06-29T02:59:09.013Z,19.58
2023-06-29T03:01:35.583Z,19.52
2023-06-29T03:04:02.194Z,19.50
2023-06-29T03:06:28.752Z,19.47
2023-06-29T03:08:55.237Z,19.48
2023-06-29T03:11:21.679Z,19.51
2023-06-29T03:13:51.093Z,19.52
2023-06-29T03:16:18.132Z,19.51
2023-06-29T03:18:44.642Z,19.48
2023-06-29T03:21:17.946Z,19.46
2023-06-29T03:23:45.319Z,19.50
2023-06-29T03:26:11.889Z,19.48
2023-06-29T03:28:38.527Z,19.46
2023-06-29T03:31:05.002Z,19.45
2023-06-29T03:33:31.563Z,19.40
2023-06-29T03:35:58.292Z,19.38
2023-06-29T03:38:24.777Z,19.39
2023-06-29T03:40:51.259Z,19.37
2023-06-29T03:43:17.727Z,19.37
2023-06-29T03:45:44.581Z,19.36
2023-06-29T03:48:11.428Z,19.32
2023-06-29T03:50:37.989Z,19.33
2023-06-29T03:53:04.557Z,19.34
2023-06-29T03:55:31.042Z,19.36
2023-06-29T03:57:58.925Z,19.35
2023-06-29T04:00:25.477Z,19.37
2023-06-29T04:02:52.067Z,19.39
2023-06-29T04:05:18.726Z,19.35
2023-06-29T04:07:45.306Z,19.31
2023-06-29T04:10:11.814Z,19.30
2023-06-29T04:12:39.727Z,19.34
2023-06-29T04:15:06.905Z,19.36
2023-06-29T04:17:33.532Z,19.35
2023-06-29T04:20:00.055Z,19.39
2023-06-29T04:22:26.534Z,19.37
2023-06-29T04:24:53.403Z,19.34
2023-06-29T04:27:20.034Z,19.37
2023-06-29T04:29:46.633Z,19.34
2023-06-29T04:32:13.254Z,19.35
2023-06-29T04:34:39.748Z,19.39
2023-06-29T04:37:07.572Z,19.40
2023-06-29T04:39:34.165Z,19.45
2023-06-29T04:42:04.017Z,19.47
2023-06-29T04:44:33.544Z,19.45
2023-06-29T04:47:04.454Z,19.44
2023-06-29T04:49:37.750Z,19.45
2023-06-29T04:52:05.490Z,19.46
2023-06-29T04:54:32.074Z,19.46
2023-06-29T04:57:00.439Z,19.45
2023-06-29T04:59:29.772Z,19.48
2023-06-29T05:01:56.354Z,19.50
2023-06-29T05:04:22.985Z,19.54
2023-06-29T05:06:49.660Z,19.60
2023-06-29T05:09:16.973Z,19.65
2023-06-29T05:11:44.064Z,19.67
2023-06-29T05:14:10.936Z,19.74
2023-06-29T05:16:37.861Z,19.79
2023-06-29T05:19:05.246Z,19.85
2023-06-29T05:21:31.980Z,19.86
2023-06-29T05:23:58.500Z,19.86
2023-06-29T05:26:25.101Z,19.87
2023-06-29T05:29:04.332Z,19.90
2023-06-29T05:31:32.648Z,19.91
2023-06-29T05:33:59.174Z,19.94
2023-06-29T05:36:25.704Z,19.97
2023-06-29T05:38:52.210Z,19.98
2023-06-29T05:41:18.989Z,20.03
2023-06-29T05:43:45.429Z,20.09
2023-06-29T05:46:12.091Z,20.16
2023-06-29T05:48:38.598Z,20.19
2023-06-29T05:51:05.149Z,20.20
2023-06-29T05:53:32.709Z,20.22
2023-06-29T05:55:59.388Z,20.22
2023-06-29T05:58:25.914Z,20.23
2023-06-29T06:00:52.847Z,20.25
2023-06-29T06:03:21.053Z,20.26
2023-06-29T06:05:47.633Z,20.23
2023-06-29T06:08:15.843Z,20.21
2023-06-29T06:10:43.012Z,20.26
2023-06-29T06:13:10.406Z,20.21
2023-06-29T06:15:36.858Z,20.20
2023-06-29T06:18:03.633Z,20.19
2023-06-29T06:20:30.266Z,20.20
2023-06-29T06:22:56.805Z,20.24
2023-06-29T06:25:23.289Z,20.25
2023-06-29T06:27:50.123Z,20.31
2023-06-29T06:30:16.738Z,20.30
2023-06-29T06:32:43.328Z,20.33
2023-06-29T06:35:10.297Z,20.39
2023-06-29T06:37:37.895Z,20.43
2023-06-29T06:40:14.163Z,20.53
2023-06-29T06:42:40.743Z,20.59
2023-06-29T06:45:08.033Z,20.66
2023-06-29T06:47:36.744Z,20.69
2023-06-29T06:50:05.023Z,20.68
2023-06-29T06:52:31.754Z,20.69
2023-06-29T06:54:58.436Z,20.64
2023-06-29T06:57:25.611Z,20.66
2023-06-29T06:59:52.363Z,20.64
2023-06-29T07:02:19.138Z,20.59
2023-06-29T07:04:45.851Z,20.58
2023-06-29T07:07:12.559Z,20.58
2023-06-29T07:09:39.915Z,20.59
2023-06-29T07:12:07.565Z,20.56
2023-06-29T07:14:34.109Z,20.55
2023-06-29T07:17:00.769Z,20.61
2023-06-29T07:24:26.694Z,20.71
2023-06-29T07:26:53.340Z,20.75
2023-06-29T07:29:19.866Z,20.72
2023-06-29T07:31:47.073Z,20.83
2023-06-29T07:34:13.610Z,20.83
2023-06-29T07:36:40.393Z,20.84
2023-06-29T07:39:06.909Z,20.94
2023-06-29T07:41:33.465Z,21.08
2023-06-29T07:44:01.134Z,21.21
2023-06-29T07:46:27.865Z,21.29
2023-06-29T07:48:55.765Z,21.33
2023-06-29T07:51:22.969Z,21.34
2023-06-29T07:53:51.270Z,21.52
2023-06-29T07:56:18.374Z,21.68
2023-06-29T07:58:45.606Z,21.78
2023-06-29T08:01:12.235Z,21.90
2023-06-29T08:03:56.027Z,22.02
2023-06-29T08:08:54.813Z,22.19
2023-06-29T08:11:22.351Z,22.28
2023-06-29T08:13:48.852Z,22.23
2023-06-29T08:16:15.811Z,22.50
2023-06-29T08:18:42.559Z,22.60
2023-06-29T08:21:11.862Z,23.04
2023-06-29T08:23:38.580Z,23.29
2023-06-29T08:26:05.680Z,23.32
2023-06-29T08:28:32.404Z,23.27
2023-06-29T08:30:58.893Z,23.18
2023-06-29T08:33:25.569Z,22.81
2023-06-29T08:35:52.716Z,22.83
2023-06-29T08:38:19.354Z,22.77
2023-06-29T08:40:50.307Z,22.54
2023-06-29T08:43:18.775Z,22.55
2023-06-29T08:45:46.356Z,22.58
2023-06-29T08:48:13.867Z,22.43
2023-06-29T08:50:46.791Z,22.53
2023-06-29T08:53:14.865Z,22.60
2023-06-29T08:55:43.100Z,22.59
2023-06-29T08:58:09.877Z,22.65
2023-06-29T09:00:38.608Z,22.86
2023-06-29T09:03:05.245Z,23.02
2023-06-29T09:05:33.659Z,23.35
2023-06-29T09:08:00.325Z,23.59
2023-06-29T09:10:26.954Z,23.56
2023-06-29T09:12:54.211Z,23.77
2023-06-29T09:15:21.524Z,23.88
2023-06-29T09:17:55.639Z,24.09
2023-06-29T09:20:22.982Z,24.22
2023-06-29T09:22:53.378Z,24.26
2023-06-29T09:25:33.213Z,24.24
2023-06-29T09:28:09.036Z,24.18
2023-06-29T09:30:38.576Z,24.02
2023-06-29T09:33:07.684Z,23.92
2023-06-29T09:35:35.363Z,23.95
2023-06-29T09:38:04.788Z,24.12
2023-06-29T09:40:31.437Z,24.35
2023-06-29T09:43:02.567Z,24.65
2023-06-29T09:45:31.512Z,24.56
2023-06-29T09:50:28.415Z,24.36
2023-06-29T09:52:56.422Z,24.49
2023-06-29T09:55:30.768Z,24.36
2023-06-29T09:57:58.510Z,24.48
2023-06-29T10:00:25.093Z,24.59
2023-06-29T10:02:51.755Z,24.66
2023-06-29T10:05:18.246Z,24.72
2023-06-29T10:07:45.054Z,24.90
2023-06-29T10:10:16.122Z,25.06
2023-06-29T10:12:42.625Z,25.09
2023-06-29T10:15:10.737Z,24.97
2023-06-29T10:18:10.309Z,24.84
2023-06-29T10:20:39.225Z,24.76
2023-06-29T10:23:08.145Z,24.75
2023-06-29T10:25:38.127Z,24.60
2023-06-29T10:28:05.881Z,24.60
2023-06-29T10:30:46.993Z,24.74
2023-06-29T10:33:14.123Z,24.88
2023-06-29T10:35:41.746Z,25.06
2023-06-29T10:38:13.444Z,24.95
2023-06-29T10:40:48.233Z,24.92
2023-06-29T10:43:14.868Z,25.32
2023-06-29T10:45:41.845Z,25.64
2023-06-29T10:48:10.977Z,25.89
2023-06-29T10:50:40.796Z,26.14
2023-06-29T10:53:10.451Z,26.28
2023-06-29T10:55:53.367Z,26.16
2023-06-29T10:58:37.660Z,26.49
2023-06-29T11:01:04.152Z,26.79
2023-06-29T11:03:30.954Z,26.69
2023-06-29T11:05:59.506Z,26.77
2023-06-29T11:08:26.087Z,26.84
2023-06-29T11:10:52.992Z,26.78
2023-06-29T11:13:20.797Z,26.53
2023-06-29T11:15:56.231Z,26.54
2023-06-29T11:18:23.483Z,26.20
2023-06-29T11:20:49.937Z,26.24
2023-06-29T11:23:19.278Z,26.14
2023-06-29T11:25:45.786Z,26.10
2023-06-29T11:28:15.791Z,26.25
2023-06-29T11:30:42.966Z,26.28
2023-06-29T11:33:24.361Z,26.13
2023-06-29T11:35:58.588Z,26.01
2023-06-29T11:38:25.142Z,25.91
2023-06-29T11:41:06.084Z,25.93
2023-06-29T11:43:33.296Z,25.91
2023-06-29T11:46:00.257Z,26.00
2023-06-29T11:48:27.711Z,25.90
2023-06-29T11:50:58.257Z,25.65
2023-06-29T11:53:25.043Z,25.51
2023-06-29T11:55:52.398Z,25.65
2023-06-29T11:58:18.978Z,25.59
2023-06-29T12:00:45.509Z,25.26
2023-06-29T12:03:12.324Z,25.11
2023-06-29T12:05:43.488Z,25.16
2023-06-29T12:08:11.271Z,25.21
2023-06-29T12:10:40.049Z,25.16
2023-06-29T12:13:10.651Z,25.06
2023-06-29T12:15:37.197Z,24.98
2023-06-29T12:18:14.234Z,25.00
2023-06-29T12:20:47.359Z,25.08
2023-06-29T12:23:15.334Z,25.01
2023-06-29T12:25:47.393Z,25.01
2023-06-29T12:28:14.967Z,25.16
2023-06-29T12:30:41.589Z,25.01
2023-06-29T12:33:09.474Z,25.24
2023-06-29T12:35:36.112Z,25.59
2023-06-29T12:38:03.306Z,25.76
2023-06-29T12:40:32.012Z,26.03
2023-06-29T12:43:01.220Z,26.47
2023-06-29T12:45:28.422Z,26.50
2023-06-29T12:47:55.123Z,26.01
2023-06-29T12:50:21.604Z,26.00
2023-06-29T12:52:49.288Z,25.96
2023-06-29T12:55:16.381Z,25.94
2023-06-29T12:57:44.630Z,25.73
2023-06-29T13:00:11.786Z,25.63
2023-06-29T13:02:38.440Z,25.60
2023-06-29T13:05:05.369Z,25.46
2023-06-29T13:07:32.147Z,25.16
2023-06-29T13:09:59.475Z,24.83
2023-06-29T13:12:27.728Z,24.50
2023-06-29T13:14:54.238Z,24.40
2023-06-29T13:17:21.124Z,24.19
2023-06-29T13:19:49.194Z,24.06
2023-06-29T13:22:19.402Z,24.14
2023-06-29T13:24:47.820Z,24.16
2023-06-29T13:27:14.753Z,24.01
2023-06-29T13:29:41.330Z,24.12
2023-06-29T13:32:08.598Z,24.30
2023-06-29T13:34:35.473Z,24.59
2023-06-29T13:37:02.438Z,24.94
2023-06-29T13:39:29.875Z,25.20
2023-06-29T13:41:56.497Z,25.74
2023-06-29T13:44:23.156Z,26.42
2023-06-29T13:46:49.756Z,26.89
2023-06-29T13:49:16.652Z,27.05
2023-06-29T13:51:43.485Z,27.14
2023-06-29T13:54:10.205Z,27.40
2023-06-29T13:56:38.816Z,27.37
2023-06-29T13:59:09.642Z,27.58
2023-06-29T14:01:41.457Z,27.76
2023-06-29T14:04:10.835Z,27.49
2023-06-29T14:06:40.527Z,27.53
2023-06-29T14:09:08.614Z,27.91
2023-06-29T14:11:35.154Z,27.67
2023-06-29T14:14:01.741Z,27.56
2023-06-29T14:16:30.155Z,27.53
2023-06-29T14:18:58.173Z,27.17
2023-06-29T14:21:24.943Z,26.81
2023-06-29T14:23:51.558Z,26.57
2023-06-29T14:26:18.244Z,26.43
2023-06-29T14:28:44.745Z,26.19
2023-06-29T14:31:11.405Z,25.82
2023-06-29T14:33:38.389Z,25.79
2023-06-29T14:36:06.374Z,25.84
2023-06-29T14:38:33.068Z,25.87
2023-06-29T14:40:59.954Z,25.98
2023-06-29T14:43:26.545Z,26.04
2023-06-29T14:45:54.270Z,25.90
2023-06-29T14:48:20.966Z,25.66
2023-06-29T14:50:49.376Z,25.52
2023-06-29T14:53:16.696Z,25.28
2023-06-29T14:55:44.586Z,25.24
2023-06-29T14:58:11.715Z,25.26
2023-06-29T15:00:38.338Z,25.28
2023-06-29T15:03:05.607Z,25.37
2023-06-29T15:05:32.285Z,25.25
2023-06-29T15:07:59.191Z,24.98
2023-06-29T15:10:25.727Z,24.89
2023-06-29T15:12:52.265Z,24.80
2023-06-29T15:15:18.961Z,24.83
2023-06-29T15:17:45.577Z,24.63
2023-06-29T15:20:12.484Z,24.57
2023-06-29T15:22:39.005Z,24.43
2023-06-29T15:25:06.195Z,24.57
2023-06-29T15:27:32.956Z,24.83
2023-06-29T15:30:02.625Z,25.23
2023-06-29T15:32:29.112Z,25.50
2023-06-29T15:34:55.655Z,25.32
2023-06-29T15:37:22.151Z,25.34
2023-06-29T15:39:48.693Z,25.47
2023-06-29T15:42:16.522Z,25.27
2023-06-29T15:44:43.330Z,25.13
2023-06-29T15:47:09.852Z,24.92
2023-06-29T15:49:36.935Z,25.07
2023-06-29T15:52:04.252Z,25.67
2023-06-29T15:54:30.787Z,26.10
2023-06-29T15:56:57.459Z,26.15
2023-06-29T15:59:23.989Z,26.37
2023-06-29T16:01:51.798Z,26.05
2023-06-29T16:04:19.482Z,25.99
2023-06-29T16:06:46.689Z,26.05
2023-06-29T16:09:13.315Z,25.67
2023-06-29T16:11:39.956Z,25.44
2023-06-29T16:14:06.838Z,25.07
2023-06-29T16:16:33.539Z,24.99
2023-06-29T16:19:00.037Z,24.91
2023-06-29T16:21:28.885Z,24.76
2023-06-29T16:23:55.464Z,24.25
2023-06-29T16:26:22.040Z,23.79
2023-06-29T16:28:48.501Z,23.62
2023-06-29T16:31:15.354Z,23.29
2023-06-29T16:33:41.993Z,23.21
2023-06-29T16:36:08.896Z,22.86
2023-06-29T16:38:35.368Z,22.49
2023-06-29T16:41:01.842Z,22.38
2023-06-29T16:43:28.236Z,22.33
2023-06-29T16:45:54.938Z,21.99
2023-06-29T16:48:21.730Z,21.83
2023-06-29T16:50:48.344Z,21.65
2023-06-29T16:53:14.910Z,21.30
2023-06-29T16:55:41.348Z,20.96
2023-06-29T16:58:07.895Z,20.72
2023-06-29T17:00:34.412Z,20.58
2023-06-29T17:03:01.535Z,20.65
2023-06-29T17:05:28.128Z,20.47
2023-06-29T17:07:57.010Z,20.34
2023-06-29T17:10:23.886Z,20.17
2023-06-29T17:12:50.420Z,20.04
2023-06-29T17:15:17.126Z,20.03
2023-06-29T17:17:43.972Z,19.90
2023-06-29T17:20:11.289Z,19.90
2023-06-29T17:22:37.710Z,19.89
2023-06-29T17:25:04.462Z,19.94
2023-06-29T17:27:31.263Z,19.98
2023-06-29T17:29:57.816Z,20.07
2023-06-29T17:32:24.411Z,20.05
2023-06-29T17:34:50.940Z,20.07
2023-06-29T17:37:18.277Z,20.04
2023-06-29T17:39:44.805Z,20.03
2023-06-29T17:42:22.663Z,19.94
2023-06-29T17:44:49.769Z,19.83
2023-06-29T17:47:16.864Z,19.52
2023-06-29T17:49:44.253Z,19.13
2023-06-29T17:52:11.012Z,18.95
2023-06-29T17:54:39.095Z,18.94
2023-06-29T17:57:07.365Z,18.90
2023-06-29T17:59:35.522Z,18.91
2023-06-29T18:02:02.183Z,18.91
2023-06-29T18:04:31.703Z,18.82
2023-06-29T18:07:00.731Z,18.73
2023-06-29T18:09:27.626Z,18.64
2023-06-29T18:11:55.853Z,18.55
2023-06-29T18:14:22.384Z,18.44
2023-06-29T18:16:49.023Z,18.29
2023-06-29T18:19:15.706Z,18.24
2023-06-29T18:21:43.608Z,18.20
2023-06-29T18:24:10.211Z,18.19
2023-06-29T18:26:37.126Z,18.18
2023-06-29T18:29:03.874Z,18.19
2023-06-29T18:31:30.470Z,18.06
2023-06-29T18:33:57.393Z,18.01
2023-06-29T18:36:24.178Z,18.06
2023-06-29T18:38:51.064Z,18.06
2023-06-29T18:41:46.959Z,18.06
2023-06-29T18:44:16.082Z,17.98
2023-06-29T18:47:09.871Z,17.96
2023-06-29T18:49:50.646Z,18.04
2023-06-29T18:52:19.931Z,18.04
2023-06-29T18:54:46.813Z,18.01
2023-06-29T18:57:13.460Z,17.95
2023-06-29T18:59:40.097Z,17.91
2023-06-29T19:02:06.940Z,17.99
2023-06-29T19:04:33.659Z,18.06
2023-06-29T19:07:00.547Z,18.07
2023-06-29T19:09:28.879Z,18.12
2023-06-29T19:11:57.176Z,18.14
2023-06-29T19:14:23.733Z,18.17
2023-06-29T19:16:50.362Z,18.20
2023-06-29T19:19:17.182Z,18.20
2023-06-29T19:21:48.940Z,18.14
2023-06-29T19:24:16.689Z,18.22
2023-06-29T19:26:43.804Z,18.21
2023-06-29T19:29:11.746Z,18.24
2023-06-29T19:31:38.974Z,18.22
2023-06-29T19:34:06.963Z,18.13
2023-06-29T19:36:34.033Z,18.05
2023-06-29T19:39:00.849Z,18.02
2023-06-29T19:41:27.383Z,18.07
2023-06-29T19:43:53.908Z,18.11
2023-06-29T19:46:20.670Z,18.12
2023-06-29T19:48:47.706Z,18.11
2023-06-29T19:51:14.248Z,18.09
2023-06-29T19:53:41.935Z,18.13
2023-06-29T19:56:08.585Z,18.17
2023-06-29T19:58:35.135Z,18.18
2023-06-29T20:01:01.603Z,18.08
2023-06-29T20:03:28.205Z,18.05
2023-06-29T20:05:55.761Z,18.08
2023-06-29T20:08:22.235Z,18.09
2023-06-29T20:10:49.708Z,18.08
2023-06-29T20:13:16.327Z,18.11
2023-06-29T20:15:42.868Z,18.13
2023-06-29T20:18:09.993Z,18.16
2023-06-29T20:20:36.653Z,18.14
2023-06-29T20:23:03.178Z,18.11
2023-06-29T20:25:29.635Z,18.10
2023-06-29T20:27:56.436Z,18.04
2023-06-29T20:30:23.309Z,18.01
2023-06-29T20:32:49.897Z,17.97
2023-06-29T20:35:16.481Z,17.92
2023-06-29T20:37:43.180Z,17.92
2023-06-29T20:40:10.117Z,17.92
2023-06-29T20:42:38.671Z,17.96
2023-06-29T20:45:06.583Z,17.95
2023-06-29T20:47:33.211Z,17.89
2023-06-29T20:49:59.953Z,17.85
2023-06-29T20:52:26.430Z,17.86
2023-06-29T20:54:52.932Z,17.86
2023-06-29T20:57:23.367Z,17.85
2023-06-29T20:59:50.203Z,17.86
2023-06-29T21:02:18.583Z,17.88
2023-06-29T21:04:45.557Z,17.85
2023-06-29T21:07:12.553Z,17.80
2023-06-29T21:09:39.508Z,17.80
2023-06-29T21:12:06.574Z,17.81
2023-06-29T21:14:33.363Z,17.85
2023-06-29T21:17:00.199Z,17.90
2023-06-29T21:19:26.896Z,17.87
2023-06-29T21:21:53.640Z,17.87
2023-06-29T21:24:20.274Z,17.88
2023-06-29T21:26:46.946Z,17.91
2023-06-29T21:29:33.320Z,17.91
2023-06-29T21:32:03.989Z,17.93
2023-06-29T21:34:31.328Z,17.88
2023-06-29T21:36:58.472Z,17.85
2023-06-29T21:39:24.964Z,17.88
2023-06-29T21:41:51.446Z,17.88
2023-06-29T21:44:18.055Z,17.85
2023-06-29T21:46:44.729Z,17.83
2023-06-29T21:49:11.446Z,17.78
2023-06-29T21:51:38.285Z,17.72
2023-06-29T21:54:05.581Z,17.66
2023-06-29T21:56:32.155Z,17.60
2023-06-29T21:58:58.665Z,17.53
2023-06-29T22:01:25.189Z,17.47
2023-06-29T22:06:21.283Z,17.42
2023-06-29T22:08:49.848Z,17.39
2023-06-29T22:11:16.452Z,17.36
2023-06-29T22:13:44.739Z,17.32
2023-06-29T22:16:11.427Z,17.29
2023-06-29T22:18:37.953Z,17.28
2023-06-29T22:21:05.453Z,17.18
2023-06-29T22:23:31.926Z,17.09
2023-06-29T22:25:58.527Z,17.03
2023-06-29T22:28:25.036Z,16.97
2023-06-29T22:30:51.610Z,16.87
2023-06-29T22:33:18.187Z,16.80
2023-06-29T22:35:46.148Z,16.72
2023-06-29T22:38:12.884Z,16.65
2023-06-29T22:40:39.350Z,16.65
2023-06-29T22:43:05.776Z,16.62
2023-06-29T22:45:32.330Z,16.59
2023-06-29T22:47:59.598Z,16.52
2023-06-29T22:50:26.270Z,16.44
2023-06-29T22:52:52.855Z,16.38
2023-06-29T22:55:19.451Z,16.35
2023-06-29T22:57:46.726Z,16.36
2023-06-29T23:00:13.601Z,16.31
2023-06-29T23:02:40.437Z,16.27
2023-06-29T23:05:07.660Z,16.27
2023-06-29T23:07:34.581Z,16.25
2023-06-29T23:10:01.171Z,16.16
2023-06-29T23:12:27.662Z,16.09
2023-06-29T23:14:55.912Z,16.05
2023-06-29T23:17:26.808Z,15.99
2023-06-29T23:19:53.463Z,15.93
2023-06-29T23:22:20.034Z,15.90
2023-06-29T23:24:46.669Z,15.88
2023-06-29T23:27:13.781Z,15.82
2023-06-29T23:29:40.280Z,15.79
2023-06-29T23:32:08.518Z,15.68
2023-06-29T23:34:35.372Z,15.66
2023-06-29T23:37:02.011Z,15.64
2023-06-29T23:39:28.863Z,15.60
2023-06-29T23:41:55.493Z,15.53
2023-06-29T23:44:21.952Z,15.51
2023-06-29T23:46:50.885Z,15.39
2023-06-29T23:49:21.561Z,15.35
2023-06-29T23:51:51.182Z,15.26
2023-06-29T23:54:17.936Z,15.23
2023-06-29T23:56:45.993Z,15.20
2023-06-29T23:59:12.519Z,15.11
